الصفحة الرئيسية
METAR-TAF:

METAR-TAF

مطار :

Dalhart Municipal Airport

دالهارت, تكساس, الولايات المتحدة

دائرة عرض: 36-01-24N, خط طول: 102-32-50W, ارتفاع: 1216 متر

مراقبة الطقس الحالي

تاريخ ووقت الإصدار 31 دقيقة قبل الساعة 11:53UTC
ريح 4 عقدة من الغرب
درجة الحرارة -7°درجة مئوية
الرطوبة 67%
ضغط 1021 hPa
الرؤية: 16.1 كم
سماء صافية

METAR: KDHT 151153Z AUTO 26004KT 10SM CLR M07/M12 A3014 RMK AO2 SLP216 T10721122 11028 21078 56015

زمن: 06:24 (12:24 UTC)

توقعات

تاريخ ووقت الإصدار 1ساعة و 4 دقيقة قبل الساعة 11:20UTC
التوقعات صالحة من15 الساعة 12 UTC إلى 16 الساعة 12 UTC
ريح 5 عقدة من الجنوب الغربي
الرؤية: 10 كم
سماء صافية
مؤقت
من 15 الساعة 12 UTC إلى 15 الساعة 16 UTC
الرؤية: 4.8 كم
العجاج
من 16 الساعة 0200 UTC
ريح 6 عقدة من الغرب/الشمال الغربي
الرؤية: 10 كم
غيوم قليلة على ارتفاع 15000 قدم
غيوم متفرقة على ارتفاع 25000 قدم

TAF: KDHT 151120Z 1512/1612 22005KT P6SM SKC TEMPO 1512/1516 3SM HZ FM160200 30006KT P6SM FEW150 SCT250

أرصاد الطقس والتوقعات من أكثر من 4000 مطار (تقارير الطقس للمطار METAR والتنبؤ بالطقس بالمطارTAF).

المحطات المتاحة هي النقط الصفراء والحمراء على الخريطة.

حرك المؤشر فوق النقطة لمعرفة اسم المحطة.

ثم انقر لمعرفة أرصاد وتوقعات الطقس.

لتغيير الخارطة: اضغط على الأزرار الخضراء مع رمز الصليب الأسود للتكبير. على الزر الأخضر مع شرطة للتصغير، أو على الأسهم الخضراء للخرائط المجاورة.


METAR-TAF: